createdAt,value
2023-07-18T00:00:57.043Z,94529.19
2023-07-18T00:03:24.040Z,94523.75
2023-07-18T00:05:50.867Z,94520.63
2023-07-18T00:08:17.515Z,94521.03
2023-07-18T00:10:44.314Z,94520.69
2023-07-18T00:13:11.117Z,94524.22
2023-07-18T00:15:37.851Z,94528.66
2023-07-18T00:18:04.874Z,94524.31
2023-07-18T00:20:32.071Z,94526.72
2023-07-18T00:23:00.455Z,94517.75
2023-07-18T00:25:27.492Z,94527.69
2023-07-18T00:27:55.384Z,94518.00
2023-07-18T00:30:23.024Z,94515.50
2023-07-18T00:32:49.978Z,94520.69
2023-07-18T00:35:17.715Z,94520.69
2023-07-18T00:37:45.840Z,94517.56
2023-07-18T00:40:16.029Z,94519.63
2023-07-18T00:42:46.463Z,94519.47
2023-07-18T00:45:14.540Z,94515.47
2023-07-18T00:47:46.693Z,94523.78
2023-07-18T00:50:18.552Z,94514.28
2023-07-18T00:52:53.517Z,94511.94
2023-07-18T00:55:20.688Z,94504.78
2023-07-18T00:57:48.605Z,94506.25
2023-07-18T01:00:18.276Z,94509.47
2023-07-18T01:02:46.731Z,94503.56
2023-07-18T01:05:19.604Z,94507.19
2023-07-18T01:07:48.126Z,94502.00
2023-07-18T01:10:15.864Z,94498.47
2023-07-18T01:12:43.334Z,94496.53
2023-07-18T01:15:13.831Z,94500.53
2023-07-18T01:17:46.312Z,94494.66
2023-07-18T01:20:20.213Z,94490.31
2023-07-18T01:22:49.254Z,94485.66
2023-07-18T01:25:20.471Z,94486.94
2023-07-18T01:27:49.151Z,94482.34
2023-07-18T01:30:19.039Z,94482.25
2023-07-18T01:32:49.816Z,94483.22
2023-07-18T01:35:20.510Z,94482.00
2023-07-18T01:37:48.588Z,94483.31
2023-07-18T01:40:21.109Z,94471.03
2023-07-18T01:42:52.943Z,94474.59
2023-07-18T01:45:24.081Z,94476.56
2023-07-18T01:47:52.379Z,94469.13
2023-07-18T01:50:19.995Z,94469.91
2023-07-18T01:52:49.919Z,94467.28
2023-07-18T01:55:17.831Z,94469.09
2023-07-18T01:57:49.794Z,94468.66
2023-07-18T02:00:21.405Z,94469.00
2023-07-18T02:02:50.947Z,94463.06
2023-07-18T02:05:20.556Z,94465.41
2023-07-18T02:07:48.775Z,94469.78
2023-07-18T02:10:17.951Z,94471.06
2023-07-18T02:12:44.855Z,94468.88
2023-07-18T02:15:14.288Z,94472.84
2023-07-18T02:17:41.969Z,94468.53
2023-07-18T02:20:12.857Z,94474.03
2023-07-18T02:22:42.166Z,94467.75
2023-07-18T02:25:10.268Z,94474.09
2023-07-18T02:27:40.434Z,94466.25
2023-07-18T02:30:12.827Z,94468.22
2023-07-18T02:32:40.664Z,94465.47
2023-07-18T02:35:09.049Z,94460.72
2023-07-18T02:37:35.782Z,94460.72
2023-07-18T02:40:11.028Z,94458.06
2023-07-18T02:42:39.277Z,94456.50
2023-07-18T02:45:07.923Z,94465.28
2023-07-18T02:47:34.824Z,94462.94
2023-07-18T02:50:01.871Z,94451.72
2023-07-18T02:52:28.622Z,94457.06
2023-07-18T02:54:55.262Z,94458.34
2023-07-18T02:57:21.976Z,94454.41
2023-07-18T02:59:48.653Z,94466.78
2023-07-18T03:02:15.555Z,94464.09
2023-07-18T03:04:42.819Z,94460.09
2023-07-18T03:07:09.586Z,94453.50
2023-07-18T03:09:36.331Z,94456.66
2023-07-18T03:12:03.161Z,94451.00
2023-07-18T03:14:30.511Z,94449.78
2023-07-18T03:16:57.309Z,94449.25
2023-07-18T03:19:24.489Z,94455.97
2023-07-18T03:21:51.354Z,94445.16
2023-07-18T03:24:18.933Z,94457.63
2023-07-18T03:26:46.350Z,94457.81
2023-07-18T03:29:13.068Z,94452.66
2023-07-18T03:31:40.947Z,94449.75
2023-07-18T03:34:08.016Z,94444.59
2023-07-18T03:36:38.404Z,94446.13
2023-07-18T03:39:05.358Z,94444.78
2023-07-18T03:41:32.078Z,94451.75
2023-07-18T03:43:58.886Z,94450.19
2023-07-18T03:46:25.674Z,94441.78
2023-07-18T03:48:53.033Z,94437.00
2023-07-18T03:51:21.572Z,94442.50
2023-07-18T03:53:51.970Z,94442.44
2023-07-18T03:56:19.019Z,94437.56
2023-07-18T03:58:45.645Z,94446.50
2023-07-18T04:01:12.849Z,94436.63
2023-07-18T04:03:39.874Z,94440.13
2023-07-18T04:06:07.690Z,94432.22
2023-07-18T04:08:34.645Z,94431.75
2023-07-18T04:11:01.467Z,94424.66
2023-07-18T04:13:28.583Z,94433.66
2023-07-18T04:15:55.977Z,94435.78
2023-07-18T04:18:23.679Z,94434.47
2023-07-18T04:20:50.702Z,94434.69
2023-07-18T04:23:18.509Z,94431.16
2023-07-18T04:25:57.296Z,94431.63
2023-07-18T04:28:24.640Z,94423.44
2023-07-18T04:30:51.450Z,94418.41
2023-07-18T04:33:18.188Z,94411.97
2023-07-18T04:35:46.221Z,94424.09
2023-07-18T04:38:14.905Z,94420.75
2023-07-18T04:40:42.977Z,94420.81
2023-07-18T04:43:10.292Z,94411.31
2023-07-18T04:45:45.522Z,94417.22
2023-07-18T04:48:14.636Z,94400.66
2023-07-18T04:50:47.626Z,94400.28
2023-07-18T04:53:14.496Z,94385.69
2023-07-18T04:55:41.321Z,94393.00
2023-07-18T04:58:09.116Z,94385.13
2023-07-18T05:00:36.586Z,94386.13
2023-07-18T05:03:03.743Z,94391.53
2023-07-18T05:05:31.021Z,94394.56
2023-07-18T05:08:03.120Z,94391.53
2023-07-18T05:10:30.131Z,94396.47
2023-07-18T05:12:58.106Z,94396.72
2023-07-18T05:15:25.386Z,94394.47
2023-07-18T05:17:52.227Z,94383.69
2023-07-18T05:20:20.368Z,94378.47
2023-07-18T05:22:47.475Z,94376.50
2023-07-18T05:25:16.352Z,94376.31
2023-07-18T05:27:43.296Z,94377.28
2023-07-18T05:30:18.296Z,94376.06
2023-07-18T05:32:46.908Z,94377.00
2023-07-18T05:35:16.783Z,94380.63
2023-07-18T05:37:44.653Z,94370.28
2023-07-18T05:40:12.728Z,94362.22
2023-07-18T05:42:40.617Z,94364.19
2023-07-18T05:45:09.275Z,94362.38
2023-07-18T05:47:36.773Z,94363.38
2023-07-18T05:50:06.167Z,94361.00
2023-07-18T05:52:33.006Z,94349.72
2023-07-18T05:54:59.979Z,94352.31
2023-07-18T05:57:26.764Z,94355.06
2023-07-18T05:59:53.550Z,94340.69
2023-07-18T06:02:21.405Z,94347.25
2023-07-18T06:04:48.530Z,94347.44
2023-07-18T06:07:16.368Z,94348.34
2023-07-18T06:09:43.531Z,94333.16
2023-07-18T06:12:10.829Z,94331.16
2023-07-18T06:14:37.522Z,94333.38
2023-07-18T06:17:04.638Z,94335.09
2023-07-18T06:19:31.498Z,94338.81
2023-07-18T06:21:58.440Z,94331.59
2023-07-18T06:24:25.725Z,94329.19
2023-07-18T06:26:52.870Z,94329.59
2023-07-18T06:29:20.922Z,94324.50
2023-07-18T06:31:48.922Z,94321.81
2023-07-18T06:34:18.589Z,94329.00
2023-07-18T06:36:47.050Z,94314.56
2023-07-18T06:39:15.346Z,94308.97
2023-07-18T06:41:42.547Z,94324.41
2023-07-18T06:44:10.379Z,94329.22
2023-07-18T06:46:37.461Z,94317.09
2023-07-18T06:49:04.796Z,94312.13
2023-07-18T06:51:31.535Z,94313.56
2023-07-18T06:53:58.272Z,94318.47
2023-07-18T06:56:25.046Z,94317.06
2023-07-18T06:58:51.860Z,94319.47
2023-07-18T07:01:18.852Z,94310.38
2023-07-18T07:03:46.010Z,94305.97
2023-07-18T07:06:14.179Z,94307.34
2023-07-18T07:08:41.015Z,94300.31
2023-07-18T07:11:09.539Z,94295.97
2023-07-18T07:13:37.118Z,94300.25
2023-07-18T07:16:04.893Z,94287.72
2023-07-18T07:18:31.843Z,94286.75
2023-07-18T07:20:58.832Z,94287.72
2023-07-18T07:23:25.675Z,94288.28
2023-07-18T07:25:52.525Z,94281.50
2023-07-18T07:28:20.495Z,94271.63
2023-07-18T07:30:47.421Z,94270.06
2023-07-18T07:33:14.309Z,94252.44
2023-07-18T07:35:41.097Z,94251.50
2023-07-18T07:38:08.095Z,94251.97
2023-07-18T07:40:34.956Z,94257.13
2023-07-18T07:43:01.889Z,94250.13
2023-07-18T07:45:28.700Z,94245.16
2023-07-18T07:47:55.486Z,94243.00
2023-07-18T07:50:22.301Z,94254.03
2023-07-18T07:52:49.054Z,94244.19
2023-07-18T07:55:16.625Z,94239.13
2023-07-18T07:57:43.426Z,94233.81
2023-07-18T08:00:10.825Z,94226.69
2023-07-18T08:02:37.592Z,94232.50
2023-07-18T08:05:04.814Z,94223.13
2023-07-18T08:07:31.550Z,94230.84
2023-07-18T08:09:58.766Z,94231.09
2023-07-18T08:12:25.953Z,94233.28
2023-07-18T08:14:52.709Z,94230.56
2023-07-18T08:17:19.523Z,94236.81
2023-07-18T08:19:46.331Z,94231.00
2023-07-18T08:22:13.054Z,94225.88
2023-07-18T08:24:40.649Z,94229.81
2023-07-18T08:27:07.909Z,94231.59
2023-07-18T08:29:36.266Z,94226.03
2023-07-18T08:32:03.313Z,94215.22
2023-07-18T08:34:30.066Z,94217.59
2023-07-18T08:36:56.881Z,94208.44
2023-07-18T08:39:23.593Z,94206.78
2023-07-18T08:41:50.465Z,94224.41
2023-07-18T08:44:18.070Z,94210.09
2023-07-18T08:46:49.155Z,94214.38
2023-07-18T08:49:18.776Z,94214.66
2023-07-18T08:51:46.422Z,94213.63
2023-07-18T08:54:16.420Z,94212.19
2023-07-18T08:56:45.232Z,94211.19
2023-07-18T08:59:12.379Z,94207.59
2023-07-18T09:01:52.443Z,94212.75
2023-07-18T09:04:22.037Z,94205.69
2023-07-18T09:06:50.962Z,94211.88
2023-07-18T09:09:22.189Z,94205.44
2023-07-18T09:12:02.591Z,94205.09
2023-07-18T09:14:33.949Z,94206.16
2023-07-18T09:17:05.086Z,94205.06
2023-07-18T09:19:49.990Z,94204.66
2023-07-18T09:22:20.868Z,94198.25
2023-07-18T09:24:49.372Z,94191.94
2023-07-18T09:27:16.619Z,94185.22
2023-07-18T09:29:48.025Z,94182.66
2023-07-18T09:32:18.780Z,94178.13
2023-07-18T09:34:55.930Z,94176.38
2023-07-18T09:37:23.058Z,94181.25
2023-07-18T09:39:50.771Z,94199.00
2023-07-18T09:42:20.346Z,94213.16
2023-07-18T09:44:51.396Z,94232.00
2023-07-18T09:47:19.465Z,94214.75
2023-07-18T09:49:47.206Z,94202.59
2023-07-18T09:52:15.833Z,94232.97
2023-07-18T09:54:44.536Z,94278.94
2023-07-18T09:57:13.055Z,94312.41
2023-07-18T09:59:40.600Z,94290.91
2023-07-18T10:02:10.476Z,94286.84
2023-07-18T10:04:38.141Z,94279.59
2023-07-18T10:07:05.384Z,94269.59
2023-07-18T10:09:33.840Z,94229.91
2023-07-18T10:12:00.608Z,94140.34
2023-07-18T10:14:31.632Z,94110.28
2023-07-18T10:17:06.123Z,94174.41
2023-07-18T10:19:49.216Z,94206.22
2023-07-18T10:22:27.064Z,94095.78
2023-07-18T10:24:53.766Z,94078.47
2023-07-18T10:27:25.669Z,94110.09
2023-07-18T10:30:09.712Z,94137.75
2023-07-18T10:32:39.367Z,94139.00
2023-07-18T10:35:14.139Z,94121.38
2023-07-18T10:37:45.172Z,94118.03
2023-07-18T10:40:31.845Z,94098.72
2023-07-18T10:42:58.623Z,94117.09
2023-07-18T10:45:25.814Z,94143.22
2023-07-18T10:47:52.694Z,94194.06
2023-07-18T10:50:20.582Z,94206.03
2023-07-18T10:52:48.136Z,94162.47
2023-07-18T10:55:16.637Z,94178.38
2023-07-18T10:57:43.415Z,94225.94
2023-07-18T11:00:10.631Z,94258.69
2023-07-18T11:02:40.099Z,94295.00
2023-07-18T11:05:12.550Z,94353.66
2023-07-18T11:07:41.954Z,94419.72
2023-07-18T11:10:14.015Z,94457.22
2023-07-18T11:12:44.410Z,94489.00
2023-07-18T11:15:13.200Z,94520.81
2023-07-18T11:17:40.148Z,94531.63
2023-07-18T11:20:08.031Z,94557.63
2023-07-18T11:22:35.217Z,94548.47
2023-07-18T11:25:02.338Z,94524.94
2023-07-18T11:27:31.034Z,94489.13
2023-07-18T11:30:05.802Z,94423.50
2023-07-18T11:32:39.131Z,94248.50
2023-07-18T11:35:08.517Z,94228.75
2023-07-18T11:37:42.219Z,94277.09
2023-07-18T11:40:11.305Z,94295.81
2023-07-18T11:43:19.599Z,94294.00
2023-07-18T11:45:47.807Z,94307.78
2023-07-18T11:48:15.053Z,94303.78
2023-07-18T11:50:46.912Z,94305.25
2023-07-18T11:53:14.097Z,94295.44
2023-07-18T11:55:40.806Z,94288.56
2023-07-18T11:58:09.274Z,94276.97
2023-07-18T12:00:37.028Z,94270.53
2023-07-18T12:03:04.027Z,94238.97
2023-07-18T12:05:30.740Z,94212.13
2023-07-18T12:07:57.418Z,94146.06
2023-07-18T12:10:26.164Z,94051.78
2023-07-18T12:12:53.252Z,94098.13
2023-07-18T12:15:20.049Z,94063.03
2023-07-18T12:17:48.167Z,94008.50
2023-07-18T12:20:15.443Z,93992.75
2023-07-18T12:22:42.239Z,93977.13
2023-07-18T12:25:09.373Z,93974.88
2023-07-18T12:27:36.519Z,93963.69
2023-07-18T12:30:04.131Z,93984.25
2023-07-18T12:32:32.517Z,94024.53
2023-07-18T12:34:59.411Z,94066.47
2023-07-18T12:37:26.179Z,94089.75
2023-07-18T12:39:53.085Z,94124.34
2023-07-18T12:42:19.896Z,94146.34
2023-07-18T12:44:47.412Z,94146.81
2023-07-18T12:47:14.608Z,94143.75
2023-07-18T12:52:13.985Z,94118.59
2023-07-18T12:54:41.621Z,94067.94
2023-07-18T12:57:08.914Z,93997.19
2023-07-18T12:59:35.784Z,93979.28
2023-07-18T13:02:02.807Z,93963.44
2023-07-18T13:04:30.106Z,93943.63
2023-07-18T13:06:57.147Z,93919.16
2023-07-18T13:09:23.877Z,93909.50
2023-07-18T13:11:51.006Z,93912.88
2023-07-18T13:14:20.999Z,93940.19
2023-07-18T13:16:48.307Z,93932.25
2023-07-18T13:19:15.078Z,93950.91
2023-07-18T13:21:41.828Z,93957.25
2023-07-18T13:24:09.026Z,93969.03
2023-07-18T13:26:37.240Z,93984.13
2023-07-18T13:29:04.868Z,93996.16
2023-07-18T13:31:31.589Z,93997.97
2023-07-18T13:33:58.311Z,94005.84
2023-07-18T13:36:25.031Z,94049.16
2023-07-18T13:38:51.744Z,94041.25
2023-07-18T13:41:18.422Z,94043.97
2023-07-18T13:43:45.127Z,94069.75
2023-07-18T13:46:13.513Z,94082.28
2023-07-18T13:48:40.632Z,94106.41
2023-07-18T13:51:07.686Z,94094.25
2023-07-18T13:53:34.470Z,94078.91
2023-07-18T13:56:02.002Z,94092.47
2023-07-18T13:58:28.890Z,94114.84
2023-07-18T14:00:55.844Z,94117.09
2023-07-18T14:03:34.120Z,94116.78
2023-07-18T14:06:02.451Z,94105.84
2023-07-18T14:08:30.891Z,94085.03
2023-07-18T14:10:57.845Z,94087.09
2023-07-18T14:13:24.676Z,94119.28
2023-07-18T14:15:51.784Z,94116.75
2023-07-18T14:18:18.963Z,94123.16
2023-07-18T14:20:46.136Z,94084.28
2023-07-18T14:23:13.341Z,94052.59
2023-07-18T14:25:40.180Z,94031.41
2023-07-18T14:28:07.077Z,94027.00
2023-07-18T14:30:41.818Z,94044.91
2023-07-18T14:33:08.572Z,94037.22
2023-07-18T14:35:35.361Z,94010.09
2023-07-18T14:38:02.302Z,93965.72
2023-07-18T14:40:29.143Z,93933.16
2023-07-18T14:42:55.803Z,93884.56
2023-07-18T14:45:22.510Z,93871.28
2023-07-18T14:47:49.289Z,93881.00
2023-07-18T14:50:16.632Z,93904.47
2023-07-18T14:52:43.790Z,93911.88
2023-07-18T14:55:10.656Z,93932.06
2023-07-18T14:57:37.358Z,93956.56
2023-07-18T15:00:06.239Z,93973.16
2023-07-18T15:02:32.992Z,93985.94
2023-07-18T15:04:59.666Z,93968.22
2023-07-18T15:07:27.743Z,93869.63
2023-07-18T15:09:54.531Z,93856.47
2023-07-18T15:12:21.563Z,93846.75
2023-07-18T15:14:48.288Z,93844.25
2023-07-18T15:17:14.968Z,93843.75
2023-07-18T15:19:41.681Z,93847.75
2023-07-18T15:22:08.405Z,93869.84
2023-07-18T15:24:36.387Z,93892.09
2023-07-18T15:27:03.515Z,93897.78
2023-07-18T15:29:30.252Z,93901.72
2023-07-18T15:31:56.937Z,93909.41
2023-07-18T15:34:23.641Z,93903.34
2023-07-18T15:36:50.802Z,93901.63
2023-07-18T15:39:17.508Z,93891.72
2023-07-18T15:41:44.238Z,93882.41
2023-07-18T15:44:10.908Z,93881.13
2023-07-18T15:46:38.634Z,93885.56
2023-07-18T15:49:06.014Z,93886.44
2023-07-18T15:51:32.872Z,93888.00
2023-07-18T15:53:59.642Z,93903.53
2023-07-18T15:56:26.581Z,93890.41
2023-07-18T15:58:53.679Z,93887.13
2023-07-18T16:01:20.585Z,93875.31
2023-07-18T16:03:47.798Z,93870.00
2023-07-18T16:06:14.868Z,93871.66
2023-07-18T16:08:41.825Z,93867.78
2023-07-18T16:11:08.494Z,93856.09
2023-07-18T16:13:36.317Z,93844.69
2023-07-18T16:16:05.407Z,93839.50
2023-07-18T16:18:32.237Z,93829.31
2023-07-18T16:20:59.009Z,93831.50
2023-07-18T16:23:25.848Z,93827.13
2023-07-18T16:25:52.619Z,93831.22
2023-07-18T16:28:19.447Z,93831.88
2023-07-18T16:30:46.271Z,93834.31
2023-07-18T16:33:13.442Z,93843.91
2023-07-18T16:35:40.399Z,93839.50
2023-07-18T16:38:07.472Z,93835.94
2023-07-18T16:40:34.243Z,93836.41
2023-07-18T16:43:00.948Z,93823.06
2023-07-18T16:45:27.639Z,93823.03
2023-07-18T16:47:54.381Z,93822.09
2023-07-18T16:50:21.121Z,93822.88
2023-07-18T16:52:47.882Z,93818.31
2023-07-18T16:55:14.691Z,93820.66
2023-07-18T16:57:41.550Z,93820.97
2023-07-18T17:00:09.669Z,93821.06
2023-07-18T17:02:37.000Z,93818.50
2023-07-18T17:05:04.374Z,93814.78
2023-07-18T17:07:31.215Z,93822.34
2023-07-18T17:09:59.459Z,93823.53
2023-07-18T17:12:26.215Z,93822.44
2023-07-18T17:14:52.977Z,93825.44
2023-07-18T17:17:19.755Z,93826.44
2023-07-18T17:20:03.100Z,93840.81
2023-07-18T17:22:34.159Z,93835.75
2023-07-18T17:25:01.124Z,93831.50
2023-07-18T17:27:28.784Z,93830.75
2023-07-18T17:29:55.799Z,93827.94
2023-07-18T17:32:22.629Z,93826.09
2023-07-18T17:34:49.417Z,93832.66
2023-07-18T17:37:16.818Z,93822.38
2023-07-18T17:39:45.523Z,93832.72
2023-07-18T17:42:12.308Z,93824.50
2023-07-18T17:44:41.182Z,93819.28
2023-07-18T17:47:08.072Z,93813.38
2023-07-18T17:49:36.001Z,93801.44
2023-07-18T17:52:02.824Z,93791.28
2023-07-18T17:54:29.822Z,93788.47
2023-07-18T17:56:56.634Z,93789.53
2023-07-18T17:59:23.344Z,93784.94
2023-07-18T18:01:50.542Z,93795.97
2023-07-18T18:04:18.345Z,93779.56
2023-07-18T18:06:45.463Z,93778.63
2023-07-18T18:09:12.202Z,93777.66
2023-07-18T18:11:38.875Z,93781.25
2023-07-18T18:14:06.138Z,93773.34
2023-07-18T18:16:33.151Z,93757.53
2023-07-18T18:18:59.841Z,93766.72
2023-07-18T18:21:26.914Z,93761.38
2023-07-18T18:23:53.679Z,93762.88
2023-07-18T18:26:21.275Z,93762.38
2023-07-18T18:28:48.259Z,93756.22
2023-07-18T18:31:15.200Z,93757.22
2023-07-18T18:33:42.142Z,93764.84
2023-07-18T18:36:08.894Z,93773.75
2023-07-18T18:38:35.653Z,93767.84
2023-07-18T18:41:04.515Z,93774.41
2023-07-18T18:43:31.847Z,93784.28
2023-07-18T18:45:58.643Z,93780.19
2023-07-18T18:48:26.729Z,93788.50
2023-07-18T18:50:53.434Z,93782.38
2023-07-18T18:53:22.221Z,93791.66
2023-07-18T18:55:49.041Z,93799.69
2023-07-18T18:58:15.755Z,93808.09
2023-07-18T19:00:42.472Z,93806.03
2023-07-18T19:03:09.247Z,93810.03
2023-07-18T19:05:36.146Z,93808.91
2023-07-18T19:08:02.997Z,93801.53
2023-07-18T19:10:31.185Z,93816.69
2023-07-18T19:12:57.907Z,93811.16
2023-07-18T19:15:24.831Z,93811.38
2023-07-18T19:17:53.701Z,93816.47
2023-07-18T19:20:21.486Z,93819.53
2023-07-18T19:22:48.825Z,93819.06
2023-07-18T19:25:16.172Z,93820.97
2023-07-18T19:27:42.892Z,93816.03
2023-07-18T19:30:11.982Z,93812.41
2023-07-18T19:32:41.215Z,93820.69
2023-07-18T19:35:08.174Z,93830.03
2023-07-18T19:37:34.975Z,93828.78
2023-07-18T19:40:01.697Z,93836.34
2023-07-18T19:42:28.413Z,93836.47
2023-07-18T19:44:55.287Z,93843.34
2023-07-18T19:47:22.271Z,93841.16
2023-07-18T19:49:50.145Z,93852.53
2023-07-18T19:52:16.836Z,93853.03
2023-07-18T19:54:43.614Z,93851.66
2023-07-18T19:57:10.362Z,93849.19
2023-07-18T19:59:37.091Z,93852.53
2023-07-18T20:02:04.047Z,93849.44
2023-07-18T20:04:31.003Z,93849.72
2023-07-18T20:06:57.909Z,93851.19
2023-07-18T20:09:25.007Z,93843.59
2023-07-18T20:11:51.795Z,93850.78
2023-07-18T20:14:18.515Z,93846.25
2023-07-18T20:16:45.535Z,93847.16
2023-07-18T20:19:12.619Z,93853.72
2023-07-18T20:21:39.810Z,93849.94
2023-07-18T20:24:06.640Z,93849.66
2023-07-18T20:26:35.432Z,93854.94
2023-07-18T20:29:02.551Z,93856.97
2023-07-18T20:31:29.340Z,93855.16
2023-07-18T20:33:56.068Z,93855.22
2023-07-18T20:36:22.834Z,93858.72
2023-07-18T20:38:49.562Z,93855.81
2023-07-18T20:41:16.277Z,93862.91
2023-07-18T20:43:43.098Z,93873.28
2023-07-18T20:46:12.406Z,93876.84
2023-07-18T20:48:39.308Z,93879.72
2023-07-18T20:51:07.235Z,93866.56
2023-07-18T20:53:34.087Z,93867.25
2023-07-18T20:56:00.888Z,93870.25
2023-07-18T20:58:27.694Z,93870.31
2023-07-18T21:00:54.499Z,93870.72
2023-07-18T21:03:21.427Z,93871.13
2023-07-18T21:05:51.406Z,93859.28
2023-07-18T21:08:19.163Z,93859.56
2023-07-18T21:10:46.100Z,93863.22
2023-07-18T21:13:13.441Z,93848.63
2023-07-18T21:15:40.320Z,93852.94
2023-07-18T21:18:07.128Z,93841.59
2023-07-18T21:20:34.161Z,93849.56
2023-07-18T21:23:01.572Z,93845.50
2023-07-18T21:25:28.725Z,93845.91
2023-07-18T21:27:55.770Z,93840.97
2023-07-18T21:30:22.526Z,93853.84
2023-07-18T21:32:49.302Z,93859.31
2023-07-18T21:35:16.186Z,93852.50
2023-07-18T21:37:43.086Z,93853.13
2023-07-18T21:40:10.324Z,93859.59
2023-07-18T21:42:37.168Z,93862.97
2023-07-18T21:45:04.244Z,93855.59
2023-07-18T21:47:31.118Z,93857.81
2023-07-18T21:49:57.961Z,93857.28
2023-07-18T21:52:24.891Z,93864.22
2023-07-18T21:54:52.050Z,93852.69
2023-07-18T21:57:18.816Z,93862.13
2023-07-18T21:59:45.602Z,93857.28
2023-07-18T22:02:15.486Z,93855.16
2023-07-18T22:04:42.327Z,93871.69
2023-07-18T22:07:09.203Z,93857.22
2023-07-18T22:09:36.563Z,93852.97
2023-07-18T22:12:05.020Z,93865.50
2023-07-18T22:14:32.482Z,93857.28
2023-07-18T22:16:59.428Z,93860.19
2023-07-18T22:19:26.346Z,93854.63
2023-07-18T22:21:53.064Z,93854.25
2023-07-18T22:24:19.932Z,93861.84
2023-07-18T22:26:46.671Z,93860.28
2023-07-18T22:29:13.402Z,93859.47
2023-07-18T22:31:40.930Z,93857.69
2023-07-18T22:34:07.830Z,93858.28
2023-07-18T22:36:34.802Z,93852.25
2023-07-18T22:39:01.701Z,93849.94
2023-07-18T22:41:28.437Z,93850.91
2023-07-18T22:43:57.481Z,93860.47
2023-07-18T22:46:24.543Z,93855.38
2023-07-18T22:48:51.363Z,93859.59
2023-07-18T22:51:18.434Z,93864.41
2023-07-18T22:53:45.420Z,93867.06
2023-07-18T22:56:12.882Z,93868.28
2023-07-18T22:58:39.654Z,93866.00
2023-07-18T23:01:06.679Z,93864.41
2023-07-18T23:03:34.417Z,93859.44
2023-07-18T23:06:01.820Z,93860.28
2023-07-18T23:08:28.582Z,93861.63
2023-07-18T23:10:55.335Z,93862.09
2023-07-18T23:13:22.568Z,93865.00
2023-07-18T23:15:49.381Z,93852.56
2023-07-18T23:18:16.097Z,93845.41
2023-07-18T23:20:43.221Z,93848.84
2023-07-18T23:23:10.083Z,93846.06
2023-07-18T23:25:37.106Z,93845.41
2023-07-18T23:28:05.773Z,93839.59
2023-07-18T23:30:32.979Z,93847.00
2023-07-18T23:32:59.814Z,93843.97
2023-07-18T23:35:26.999Z,93838.50
2023-07-18T23:37:55.560Z,93838.22
2023-07-18T23:40:22.356Z,93839.28
2023-07-18T23:42:49.070Z,93838.06
2023-07-18T23:45:15.859Z,93842.09
2023-07-18T23:47:42.647Z,93842.41
2023-07-18T23:50:10.100Z,93837.34
2023-07-18T23:52:37.191Z,93838.75
2023-07-18T23:55:04.088Z,93832.75
2023-07-18T23:57:30.982Z,93831.72
2023-07-18T23:59:57.770Z,93819.22
